createdAt,value
2022-10-18T00:04:57.848Z,19.6
2022-10-18T00:10:10.063Z,19.28
2022-10-18T00:15:22.182Z,19.1
2022-10-18T00:20:34.671Z,19.04
2022-10-18T00:25:46.928Z,18.97
2022-10-18T00:30:59.231Z,18.74
2022-10-18T00:36:11.486Z,18.6
2022-10-18T00:41:23.863Z,18.55
2022-10-18T00:46:36.322Z,18.55
2022-10-18T00:51:48.641Z,18.61
2022-10-18T00:57:00.982Z,18.61
2022-10-18T01:02:13.336Z,18.58
2022-10-18T01:07:25.637Z,18.58
2022-10-18T01:12:37.864Z,18.52
2022-10-18T01:17:50.055Z,18.49
2022-10-18T01:23:02.456Z,18.47
2022-10-18T01:28:14.801Z,18.44
2022-10-18T01:33:27.122Z,18.43
2022-10-18T01:38:39.467Z,18.48
2022-10-18T01:43:52.895Z,18.49
2022-10-18T01:49:04.997Z,18.53
2022-10-18T01:54:17.550Z,18.52
2022-10-18T01:59:29.763Z,18.53
2022-10-18T02:04:41.991Z,18.55
2022-10-18T02:09:54.185Z,18.53
2022-10-18T02:15:06.461Z,18.52
2022-10-18T02:20:18.769Z,18.51
2022-10-18T02:25:31.279Z,18.5
2022-10-18T02:30:43.460Z,18.46
2022-10-18T02:35:55.737Z,18.43
2022-10-18T02:41:08.266Z,18.37
2022-10-18T02:46:20.629Z,18.25
2022-10-18T02:51:33.212Z,18.19
2022-10-18T02:56:45.578Z,18.19
2022-10-18T03:01:57.746Z,18.17
2022-10-18T03:07:09.836Z,18.16
2022-10-18T03:12:22.126Z,18.1
2022-10-18T03:17:34.628Z,18.05
2022-10-18T03:22:46.758Z,18.03
2022-10-18T03:27:59.086Z,18.02
2022-10-18T03:33:11.466Z,18.01
2022-10-18T03:38:23.913Z,18.04
2022-10-18T03:43:36.152Z,18.05
2022-10-18T03:48:48.360Z,18.02
2022-10-18T03:54:00.544Z,17.93
2022-10-18T03:59:12.827Z,17.88
2022-10-18T04:04:25.145Z,17.8
2022-10-18T04:09:37.348Z,17.73
2022-10-18T04:14:49.603Z,17.65
2022-10-18T04:20:01.834Z,17.62
2022-10-18T04:25:14.310Z,17.62
2022-10-18T04:30:26.637Z,17.57
2022-10-18T04:35:38.939Z,17.57
2022-10-18T04:40:51.262Z,17.54
2022-10-18T04:46:03.830Z,17.51
2022-10-18T04:51:16.642Z,17.52
2022-10-18T04:56:28.932Z,17.47
2022-10-18T05:01:41.414Z,17.49
2022-10-18T05:06:53.622Z,17.51
2022-10-18T05:12:06.009Z,17.58
2022-10-18T05:17:18.380Z,17.61
2022-10-18T05:22:31.089Z,17.63
2022-10-18T05:27:43.012Z,17.64
2022-10-18T05:32:55.236Z,17.61
2022-10-18T05:38:07.859Z,17.63
2022-10-18T05:43:20.379Z,17.68
2022-10-18T05:48:32.559Z,17.72
2022-10-18T05:53:45.027Z,17.59
2022-10-18T05:58:57.341Z,17.57
2022-10-18T06:04:09.935Z,17.57
2022-10-18T06:09:22.425Z,17.58
2022-10-18T06:14:34.832Z,17.68
2022-10-18T06:19:47.397Z,17.77
2022-10-18T06:24:59.643Z,17.85
2022-10-18T06:30:11.853Z,17.93
2022-10-18T06:35:24.171Z,17.91
2022-10-18T06:40:36.476Z,17.9
2022-10-18T06:45:48.894Z,17.91
2022-10-18T06:51:01.320Z,17.93
2022-10-18T06:56:13.661Z,17.96
2022-10-18T07:01:26.187Z,18.01
2022-10-18T07:06:38.368Z,18
2022-10-18T07:11:50.932Z,17.81
2022-10-18T07:17:03.172Z,17.56
2022-10-18T07:22:15.587Z,17.4
2022-10-18T07:27:27.973Z,17.46
2022-10-18T07:32:40.344Z,17.51
2022-10-18T07:37:52.553Z,17.38
2022-10-18T07:43:05.032Z,17.28
2022-10-18T07:48:17.072Z,17.12
2022-10-18T07:53:29.326Z,17.02
2022-10-18T07:58:41.731Z,17.02
2022-10-18T08:03:54.027Z,17.06
2022-10-18T08:09:06.535Z,17.09
2022-10-18T08:14:18.904Z,17.17
2022-10-18T08:19:31.074Z,17.3
2022-10-18T08:24:43.565Z,17.32
2022-10-18T08:29:55.941Z,17.21
2022-10-18T08:35:08.574Z,17.14
2022-10-18T08:40:20.429Z,17.09
2022-10-18T08:45:47.660Z,17.14
2022-10-18T08:50:45.245Z,17.2
2022-10-18T08:55:57.797Z,17.24
2022-10-18T09:01:09.821Z,17.02
2022-10-18T09:06:23.433Z,16.86
2022-10-18T09:11:34.366Z,16.77
2022-10-18T09:16:46.874Z,16.6
2022-10-18T09:21:59.124Z,16.53
2022-10-18T09:27:11.475Z,16.47
2022-10-18T09:32:24.066Z,16.43
2022-10-18T09:37:36.224Z,16.5
2022-10-18T09:42:48.616Z,16.43
2022-10-18T09:48:00.827Z,16.42
2022-10-18T09:53:13.144Z,16.38
2022-10-18T09:58:25.381Z,16.33
2022-10-18T10:03:37.696Z,16.31
2022-10-18T10:08:50.037Z,16.29
2022-10-18T10:19:14.457Z,16.27
2022-10-18T10:24:28.691Z,16.3
2022-10-18T10:29:44.342Z,16.39
2022-10-18T10:34:51.456Z,16.42
2022-10-18T10:40:20.408Z,16.43
2022-10-18T10:45:16.160Z,16.5
2022-10-18T10:50:28.517Z,16.62
2022-10-18T10:55:40.759Z,16.74
2022-10-18T11:00:53.069Z,16.6
2022-10-18T11:06:05.814Z,16.61
2022-10-18T11:11:19.394Z,16.49
2022-10-18T11:16:30.629Z,16.42
2022-10-18T11:21:42.941Z,16.41
2022-10-18T11:26:55.236Z,16.49
2022-10-18T11:32:07.715Z,16.57
2022-10-18T11:37:28.436Z,16.51
2022-10-18T11:42:34.777Z,16.56
2022-10-18T11:47:45.202Z,16.55
2022-10-18T11:52:57.496Z,16.6
2022-10-18T11:58:09.841Z,16.69
2022-10-18T12:03:22.268Z,16.87
2022-10-18T12:08:35.373Z,16.86
2022-10-18T12:13:47.694Z,16.74
2022-10-18T12:19:00.049Z,16.66
2022-10-18T12:24:12.391Z,16.66
2022-10-18T12:29:24.982Z,16.65
2022-10-18T12:34:37.155Z,16.6
2022-10-18T12:40:14.474Z,16.64
2022-10-18T12:45:02.047Z,16.66
2022-10-18T12:50:14.530Z,16.68
2022-10-18T12:55:26.576Z,16.66
2022-10-18T13:00:39.004Z,16.72
2022-10-18T13:05:54.234Z,16.74
2022-10-18T13:11:03.741Z,16.77
2022-10-18T13:16:16.284Z,16.77
2022-10-18T13:21:28.825Z,16.82
2022-10-18T13:26:41.048Z,16.9
2022-10-18T13:31:53.362Z,16.99
2022-10-18T13:37:05.558Z,17.05
2022-10-18T13:42:18.128Z,17.3
2022-10-18T13:47:30.554Z,17.59
2022-10-18T13:52:43.092Z,17.78
2022-10-18T13:57:55.252Z,17.94
2022-10-18T14:03:12.780Z,17.63
2022-10-18T14:08:20.165Z,17.61
2022-10-18T14:13:32.581Z,17.63
2022-10-18T14:18:44.702Z,17.72
2022-10-18T14:23:57.355Z,17.97
2022-10-18T14:29:09.726Z,18.22
2022-10-18T14:34:22.178Z,18.31
2022-10-18T14:39:34.330Z,18.13
2022-10-18T14:44:47.023Z,18.35
2022-10-18T14:49:59.449Z,18.7
2022-10-18T14:55:12.031Z,19.13
2022-10-18T15:05:36.941Z,19.96
2022-10-18T15:10:49.303Z,20.16
2022-10-18T15:16:01.279Z,19.84
2022-10-18T15:21:13.294Z,19.29
2022-10-18T15:26:25.410Z,18.83
2022-10-18T15:31:37.627Z,18.64
2022-10-18T15:36:49.754Z,18.49
2022-10-18T15:42:02.531Z,18.39
2022-10-18T15:47:14.989Z,18.21
2022-10-18T15:52:27.114Z,17.88
2022-10-18T15:57:39.477Z,17.58
2022-10-18T16:02:51.764Z,17.25
2022-10-18T16:08:03.923Z,17.04
2022-10-18T16:13:16.241Z,16.87
2022-10-18T16:18:28.425Z,16.76
2022-10-18T16:23:40.573Z,16.58
2022-10-18T16:28:53.011Z,16.38
2022-10-18T16:34:05.194Z,16.22
2022-10-18T16:39:17.525Z,16.12
2022-10-18T16:44:29.867Z,16.1
2022-10-18T16:49:42.084Z,15.98
2022-10-18T16:54:54.453Z,15.84
2022-10-18T17:00:07.172Z,15.73
2022-10-18T17:05:19.431Z,15.65
2022-10-18T17:10:31.812Z,15.61
2022-10-18T17:15:44.642Z,15.54
2022-10-18T17:20:57.128Z,15.48
2022-10-18T17:26:27.594Z,15.37
2022-10-18T17:31:22.004Z,15.22
2022-10-18T17:36:34.535Z,15.09
2022-10-18T17:41:46.839Z,15.01
2022-10-18T17:46:59.056Z,14.88
2022-10-18T17:52:11.355Z,14.74
2022-10-18T17:57:23.908Z,14.61
2022-10-18T18:02:37.230Z,14.51
2022-10-18T18:07:48.483Z,14.38
2022-10-18T18:13:00.878Z,14.32
2022-10-18T18:18:13.141Z,14.21
2022-10-18T18:23:25.421Z,14.14
2022-10-18T18:28:37.957Z,14.16
2022-10-18T18:33:50.287Z,14.17
2022-10-18T18:39:02.628Z,14.09
2022-10-18T18:44:15.078Z,14
2022-10-18T18:49:27.574Z,13.92
2022-10-18T18:54:39.862Z,13.87
2022-10-18T18:59:52.405Z,13.91
2022-10-18T19:05:04.939Z,13.93
2022-10-18T19:10:17.199Z,13.91
2022-10-18T19:15:29.746Z,13.89
2022-10-18T19:20:42.233Z,13.84
2022-10-18T19:25:54.477Z,13.74
2022-10-18T19:31:07.013Z,13.73
2022-10-18T19:36:19.287Z,13.7
2022-10-18T19:41:31.868Z,13.66
2022-10-18T19:46:44.435Z,13.62
2022-10-18T19:51:56.903Z,13.6
2022-10-18T19:57:09.253Z,13.58
2022-10-18T20:02:21.610Z,13.56
2022-10-18T20:07:33.979Z,13.54
2022-10-18T20:12:46.451Z,13.48
2022-10-18T20:17:58.887Z,13.42
2022-10-18T20:23:11.416Z,13.35
2022-10-18T20:28:23.944Z,13.28
2022-10-18T20:33:36.292Z,13.21
2022-10-18T20:38:48.730Z,13.19
2022-10-18T20:44:01.128Z,13.13
2022-10-18T20:49:13.447Z,13.05
2022-10-18T20:54:25.690Z,12.96
2022-10-18T20:59:38.173Z,12.85
2022-10-18T21:04:50.527Z,12.7
2022-10-18T21:10:02.729Z,12.59
2022-10-18T21:15:15.469Z,12.56
2022-10-18T21:20:27.683Z,12.55
2022-10-18T21:25:39.901Z,12.45
2022-10-18T21:30:52.104Z,12.38
2022-10-18T21:36:04.445Z,12.36
2022-10-18T21:41:16.795Z,12.38
2022-10-18T21:46:29.220Z,12.35
2022-10-18T21:51:41.930Z,12.32
2022-10-18T21:56:54.156Z,12.26
2022-10-18T22:02:06.349Z,12.21
2022-10-18T22:07:18.670Z,12.15
2022-10-18T22:12:31.045Z,12.11
2022-10-18T22:17:43.451Z,12.15
2022-10-18T22:22:55.980Z,12.16
2022-10-18T22:28:08.227Z,12.17
2022-10-18T22:33:21.033Z,12.23
2022-10-18T22:38:33.591Z,12.27
2022-10-18T22:43:46.012Z,12.34
2022-10-18T22:48:58.075Z,12.41
2022-10-18T22:54:10.322Z,12.41
2022-10-18T22:59:22.685Z,12.4
2022-10-18T23:04:34.872Z,12.3
2022-10-18T23:09:47.310Z,12.18
2022-10-18T23:14:59.586Z,12.09
2022-10-18T23:20:11.867Z,12.06
2022-10-18T23:25:24.393Z,12.11
2022-10-18T23:30:36.934Z,12.18
2022-10-18T23:35:49.333Z,12.19
2022-10-18T23:41:01.695Z,12.16
2022-10-18T23:46:14.010Z,12.21
2022-10-18T23:51:26.305Z,12.26
2022-10-18T23:56:38.704Z,12.3
